sensor_id;sensor_type;location;lat;lon;timestamp;pressure;altitude;pressure_sealevel;temperature;humidity
38038;BME280;23843;51.320;12.340;2022-11-20T05:30:48;99992.91;;;-4.60;95.12
38038;BME280;23843;51.320;12.340;2022-11-20T05:33:14;99981.69;;;-4.63;94.94
38038;BME280;23843;51.320;12.340;2022-11-20T05:35:40;99983.44;;;-4.62;95.40
38038;BME280;23843;51.320;12.340;2022-11-20T05:38:05;99984.31;;;-4.60;95.89
38038;BME280;23843;51.320;12.340;2022-11-20T05:40:31;99975.69;;;-4.61;95.99
38038;BME280;23843;51.320;12.340;2022-11-20T05:42:56;99971.34;;;-4.59;96.17
38038;BME280;23843;51.320;12.340;2022-11-20T05:45:22;99970.50;;;-4.58;96.41
38038;BME280;23843;51.320;12.340;2022-11-20T05:47:48;99967.06;;;-4.57;96.08
38038;BME280;23843;51.320;12.340;2022-11-20T05:50:14;99972.22;;;-4.60;96.09
38038;BME280;23843;51.320;12.340;2022-11-20T05:52:40;99967.06;;;-4.61;96.09
38038;BME280;23843;51.320;12.340;2022-11-20T05:55:06;99961.00;;;-4.63;96.44
38038;BME280;23843;51.320;12.340;2022-11-20T05:57:31;99961.88;;;-4.64;96.32
38038;BME280;23843;51.320;12.340;2022-11-20T05:59:57;99969.63;;;-4.66;96.22
38038;BME280;23843;51.320;12.340;2022-11-20T06:02:22;99963.63;;;-4.65;96.35
38038;BME280;23843;51.320;12.340;2022-11-20T06:04:49;99967.06;;;-4.64;96.75
38038;BME280;23843;51.320;12.340;2022-11-20T06:07:15;99967.03;;;-4.66;96.46
38038;BME280;23843;51.320;12.340;2022-11-20T06:09:40;99966.19;;;-4.66;96.52
38038;BME280;23843;51.320;12.340;2022-11-20T06:12:06;99964.47;;;-4.67;96.49
38038;BME280;23843;51.320;12.340;2022-11-20T06:14:31;99954.13;;;-4.67;96.17
38038;BME280;23843;51.320;12.340;2022-11-20T06:16:57;99953.28;;;-4.68;96.38
38038;BME280;23843;51.320;12.340;2022-11-20T06:19:22;99955.00;;;-4.70;95.96
38038;BME280;23843;51.320;12.340;2022-11-20T06:21:49;99962.72;;;-4.71;96.36
38038;BME280;23843;51.320;12.340;2022-11-20T06:24:15;99966.19;;;-4.72;96.36
38038;BME280;23843;51.320;12.340;2022-11-20T06:26:41;99968.75;;;-4.71;96.55
38038;BME280;23843;51.320;12.340;2022-11-20T06:29:06;99967.91;;;-4.71;96.42
38038;BME280;23843;51.320;12.340;2022-11-20T06:31:32;99961.03;;;-4.72;96.40
38038;BME280;23843;51.320;12.340;2022-11-20T06:33:58;99962.72;;;-4.73;96.36
38038;BME280;23843;51.320;12.340;2022-11-20T06:36:23;99969.63;;;-4.74;96.36
38038;BME280;23843;51.320;12.340;2022-11-20T06:38:50;99956.69;;;-4.74;96.85
38038;BME280;23843;51.320;12.340;2022-11-20T06:41:18;99961.00;;;-4.71;97.01
38038;BME280;23843;51.320;12.340;2022-11-20T06:43:44;99964.47;;;-4.70;96.60
38038;BME280;23843;51.320;12.340;2022-11-20T06:46:11;99958.44;;;-4.68;96.49
38038;BME280;23843;51.320;12.340;2022-11-20T06:48:36;99965.31;;;-4.67;97.08
38038;BME280;23843;51.320;12.340;2022-11-20T06:51:03;99961.00;;;-4.66;97.05
38038;BME280;23843;51.320;12.340;2022-11-20T06:53:28;99952.41;;;-4.65;96.95
38038;BME280;23843;51.320;12.340;2022-11-20T06:55:56;99961.00;;;-4.63;97.10
38038;BME280;23843;51.320;12.340;2022-11-20T06:58:21;99961.00;;;-4.63;96.79
38038;BME280;23843;51.320;12.340;2022-11-20T07:00:47;99951.56;;;-4.60;96.80
38038;BME280;23843;51.320;12.340;2022-11-20T07:03:13;99955.88;;;-4.57;97.02
38038;BME280;23843;51.320;12.340;2022-11-20T07:05:38;99954.13;;;-4.57;97.01
38038;BME280;23843;51.320;12.340;2022-11-20T07:08:04;99962.75;;;-4.50;97.31
38038;BME280;23843;51.320;12.340;2022-11-20T07:10:30;99960.19;;;-4.45;97.35
38038;BME280;23843;51.320;12.340;2022-11-20T07:12:57;99957.59;;;-4.41;97.42
38038;BME280;23843;51.320;12.340;2022-11-20T07:15:23;99956.72;;;-4.37;97.17
38038;BME280;23843;51.320;12.340;2022-11-20T07:17:50;99959.31;;;-4.37;97.01
38038;BME280;23843;51.320;12.340;2022-11-20T07:20:15;99954.13;;;-4.37;96.74
38038;BME280;23843;51.320;12.340;2022-11-20T07:22:41;99958.44;;;-4.34;96.34
38038;BME280;23843;51.320;12.340;2022-11-20T07:25:07;99960.19;;;-4.28;96.52
38038;BME280;23843;51.320;12.340;2022-11-20T07:27:33;99960.16;;;-4.18;96.59
38038;BME280;23843;51.320;12.340;2022-11-20T07:30:00;99945.50;;;-4.08;96.11
38038;BME280;23843;51.320;12.340;2022-11-20T07:32:25;99963.59;;;-4.05;96.00
38038;BME280;23843;51.320;12.340;2022-11-20T07:34:51;99964.50;;;-4.00;96.01
38038;BME280;23843;51.320;12.340;2022-11-20T07:37:17;99967.03;;;-3.91;95.56
38038;BME280;23843;51.320;12.340;2022-11-20T07:39:42;99962.66;;;-3.64;95.02
38038;BME280;23843;51.320;12.340;2022-11-20T07:42:08;99964.28;;;-3.26;95.23
38038;BME280;23843;51.320;12.340;2022-11-20T07:44:34;99960.50;;;-2.67;94.24
38038;BME280;23843;51.320;12.340;2022-11-20T07:47:00;99954.88;;;-2.11;93.03
38038;BME280;23843;51.320;12.340;2022-11-20T07:49:26;99954.44;;;-1.68;89.31
38038;BME280;23843;51.320;12.340;2022-11-20T07:51:52;99943.63;;;-1.30;87.44
38038;BME280;23843;51.320;12.340;2022-11-20T07:54:17;99947.97;;;-1.32;86.95
38038;BME280;23843;51.320;12.340;2022-11-20T07:56:42;99946.69;;;-0.99;85.20
38038;BME280;23843;51.320;12.340;2022-11-20T07:59:08;99940.97;;;-0.62;86.05
38038;BME280;23843;51.320;12.340;2022-11-20T08:01:33;99935.94;;;-0.18;81.54
38038;BME280;23843;51.320;12.340;2022-11-20T08:04:00;99944.38;;;0.42;86.46
38038;BME280;23843;51.320;12.340;2022-11-20T08:06:25;99945.06;;;0.52;83.61
38038;BME280;23843;51.320;12.340;2022-11-20T08:08:51;99934.41;;;1.05;78.41
38038;BME280;23843;51.320;12.340;2022-11-20T08:11:16;99938.06;;;1.35;78.42
38038;BME280;23843;51.320;12.340;2022-11-20T08:13:42;99933.41;;;1.85;86.28
38038;BME280;23843;51.320;12.340;2022-11-20T08:16:07;99926.03;;;2.00;75.33
38038;BME280;23843;51.320;12.340;2022-11-20T08:18:33;99926.09;;;2.31;74.55
38038;BME280;23843;51.320;12.340;2022-11-20T08:21:01;99914.91;;;2.88;81.47
38038;BME280;23843;51.320;12.340;2022-11-20T08:23:27;99919.50;;;3.10;69.51
38038;BME280;23843;51.320;12.340;2022-11-20T08:25:52;99923.09;;;3.06;62.43
38038;BME280;23843;51.320;12.340;2022-11-20T08:28:18;99927.88;;;2.62;63.98
38038;BME280;23843;51.320;12.340;2022-11-20T08:30:43;99929.72;;;2.88;78.05
38038;BME280;23843;51.320;12.340;2022-11-20T08:33:09;99927.69;;;2.97;81.25
38038;BME280;23843;51.320;12.340;2022-11-20T08:35:35;99930.16;;;3.02;78.81
38038;BME280;23843;51.320;12.340;2022-11-20T08:38:02;99919.69;;;3.02;72.79
38038;BME280;23843;51.320;12.340;2022-11-20T08:40:27;99924.38;;;3.20;67.88
38038;BME280;23843;51.320;12.340;2022-11-20T08:42:53;99925.97;;;3.53;80.24
38038;BME280;23843;51.320;12.340;2022-11-20T08:45:18;99921.34;;;3.88;79.00
38038;BME280;23843;51.320;12.340;2022-11-20T08:47:44;99926.28;;;3.97;68.32
38038;BME280;23843;51.320;12.340;2022-11-20T08:50:10;99927.47;;;3.88;78.00
38038;BME280;23843;51.320;12.340;2022-11-20T08:52:36;99928.44;;;3.85;80.39
38038;BME280;23843;51.320;12.340;2022-11-20T08:55:04;99933.25;;;3.71;76.13
38038;BME280;23843;51.320;12.340;2022-11-20T08:57:31;99933.56;;;3.62;79.45
38038;BME280;23843;51.320;12.340;2022-11-20T08:59:56;99933.81;;;3.26;69.19
38038;BME280;23843;51.320;12.340;2022-11-20T09:02:22;99930.94;;;3.06;73.33
38038;BME280;23843;51.320;12.340;2022-11-20T09:04:47;99921.69;;;2.94;75.96
38038;BME280;23843;51.320;12.340;2022-11-20T09:07:13;99928.50;;;2.70;76.50
38038;BME280;23843;51.320;12.340;2022-11-20T09:09:38;99929.03;;;2.51;77.32
38038;BME280;23843;51.320;12.340;2022-11-20T09:12:05;99922.25;;;2.44;79.65
38038;BME280;23843;51.320;12.340;2022-11-20T09:14:30;99923.31;;;2.37;79.79
38038;BME280;23843;51.320;12.340;2022-11-20T09:16:56;99932.50;;;2.19;77.08
38038;BME280;23843;51.320;12.340;2022-11-20T09:19:21;99940.75;;;2.04;76.44
38038;BME280;23843;51.320;12.340;2022-11-20T09:21:48;99929.06;;;1.84;75.74
38038;BME280;23843;51.320;12.340;2022-11-20T09:24:13;99924.00;;;1.78;77.87
38038;BME280;23843;51.320;12.340;2022-11-20T09:26:39;99934.69;;;1.67;77.81
38038;BME280;23843;51.320;12.340;2022-11-20T09:29:06;99933.00;;;1.66;79.98
38038;BME280;23843;51.320;12.340;2022-11-20T09:31:31;99934.88;;;1.61;80.20
38038;BME280;23843;51.320;12.340;2022-11-20T09:33:57;99932.34;;;1.57;80.27
38038;BME280;23843;51.320;12.340;2022-11-20T09:36:22;99923.69;;;1.55;78.90
38038;BME280;23843;51.320;12.340;2022-11-20T09:38:48;99926.22;;;1.58;80.28
38038;BME280;23843;51.320;12.340;2022-11-20T09:41:31;99920.03;;;1.62;80.41
38038;BME280;23843;51.320;12.340;2022-11-20T09:44:07;99916.47;;;1.66;81.36
38038;BME280;23843;51.320;12.340;2022-11-20T09:46:43;99918.84;;;1.75;82.21
38038;BME280;23843;51.320;12.340;2022-11-20T09:49:22;99925.16;;;1.66;78.76
38038;BME280;23843;51.320;12.340;2022-11-20T09:51:53;99926.50;;;1.47;77.72
38038;BME280;23843;51.320;12.340;2022-11-20T09:54:25;99921.41;;;1.41;79.23
38038;BME280;23843;51.320;12.340;2022-11-20T09:56:59;99916.41;;;1.32;81.22
38038;BME280;23843;51.320;12.340;2022-11-20T09:59:34;99915.72;;;1.23;79.85
38038;BME280;23843;51.320;12.340;2022-11-20T10:02:01;99914.19;;;1.15;81.96
38038;BME280;23843;51.320;12.340;2022-11-20T10:04:30;99906.53;;;1.07;82.18
38038;BME280;23843;51.320;12.340;2022-11-20T10:07:02;99912.47;;;1.14;84.09
38038;BME280;23843;51.320;12.340;2022-11-20T10:09:31;99910.72;;;1.14;83.71
38038;BME280;23843;51.320;12.340;2022-11-20T10:12:07;99902.97;;;1.11;80.52
38038;BME280;23843;51.320;12.340;2022-11-20T10:14:55;99891.75;;;1.08;81.94
38038;BME280;23843;51.320;12.340;2022-11-20T10:17:30;99887.19;;;1.17;82.76
38038;BME280;23843;51.320;12.340;2022-11-20T10:20:14;99885.06;;;1.32;82.48
38038;BME280;23843;51.320;12.340;2022-11-20T10:22:51;99883.28;;;1.35;82.06
38038;BME280;23843;51.320;12.340;2022-11-20T10:25:20;99882.41;;;1.35;81.97
38038;BME280;23843;51.320;12.340;2022-11-20T10:27:56;99882.94;;;1.49;82.94
38038;BME280;23843;51.320;12.340;2022-11-20T10:30:24;99878.97;;;1.68;85.40
38038;BME280;23843;51.320;12.340;2022-11-20T10:32:52;99875.94;;;1.85;85.13
38038;BME280;23843;51.320;12.340;2022-11-20T10:35:22;99879.13;;;1.95;84.46
38038;BME280;23843;51.320;12.340;2022-11-20T10:37:54;99877.91;;;2.10;85.28
38038;BME280;23843;51.320;12.340;2022-11-20T10:40:23;99876.91;;;2.14;84.38
38038;BME280;23843;51.320;12.340;2022-11-20T10:42:56;99863.19;;;2.06;83.13
38038;BME280;23843;51.320;12.340;2022-11-20T10:45:34;99858.09;;;2.01;82.46
38038;BME280;23843;51.320;12.340;2022-11-20T10:48:10;99859.06;;;1.97;82.89
38038;BME280;23843;51.320;12.340;2022-11-20T10:50:41;99861.97;;;1.86;81.72
38038;BME280;23843;51.320;12.340;2022-11-20T10:53:18;99856.88;;;1.80;83.10
38038;BME280;23843;51.320;12.340;2022-11-20T10:55:50;99850.19;;;1.71;82.68
38038;BME280;23843;51.320;12.340;2022-11-20T10:58:24;99849.38;;;1.68;84.10
38038;BME280;23843;51.320;12.340;2022-11-20T11:01:03;99858.00;;;1.71;83.35
38038;BME280;23843;51.320;12.340;2022-11-20T11:03:30;99857.78;;;1.81;84.02
38038;BME280;23843;51.320;12.340;2022-11-20T11:06:01;99851.50;;;1.88;84.30
38038;BME280;23843;51.320;12.340;2022-11-20T11:08:34;99849.50;;;1.98;83.26
38038;BME280;23843;51.320;12.340;2022-11-20T11:11:02;99834.34;;;2.09;83.79
38038;BME280;23843;51.320;12.340;2022-11-20T11:13:32;99836.13;;;2.08;82.45
38038;BME280;23843;51.320;12.340;2022-11-20T11:15:59;99836.09;;;2.10;82.71
38038;BME280;23843;51.320;12.340;2022-11-20T11:18:26;99834.22;;;2.15;81.93
38038;BME280;23843;51.320;12.340;2022-11-20T11:20:54;99823.53;;;2.23;81.71
38038;BME280;23843;51.320;12.340;2022-11-20T11:23:32;99823.41;;;2.27;80.65
38038;BME280;23843;51.320;12.340;2022-11-20T11:26:00;99827.69;;;2.30;81.48
38038;BME280;23843;51.320;12.340;2022-11-20T11:28:26;99835.34;;;2.36;82.79
38038;BME280;23843;51.320;12.340;2022-11-20T11:30:53;99821.31;;;2.39;82.02
38038;BME280;23843;51.320;12.340;2022-11-20T11:33:21;99818.81;;;2.35;80.91
38038;BME280;23843;51.320;12.340;2022-11-20T11:35:49;99815.69;;;2.23;79.91
38038;BME280;23843;51.320;12.340;2022-11-20T11:38:17;99822.16;;;2.09;77.57
38038;BME280;23843;51.320;12.340;2022-11-20T11:40:44;99816.03;;;2.10;81.63
38038;BME280;23843;51.320;12.340;2022-11-20T11:43:19;99812.34;;;2.18;82.59
38038;BME280;23843;51.320;12.340;2022-11-20T11:45:52;99812.59;;;2.08;81.08
38038;BME280;23843;51.320;12.340;2022-11-20T11:48:19;99817.97;;;2.04;81.80
38038;BME280;23843;51.320;12.340;2022-11-20T11:50:48;99819.94;;;1.96;79.03
38038;BME280;23843;51.320;12.340;2022-11-20T11:53:17;99817.59;;;1.85;79.09
38038;BME280;23843;51.320;12.340;2022-11-20T11:55:46;99816.00;;;1.81;81.30
38038;BME280;23843;51.320;12.340;2022-11-20T11:58:37;99819.56;;;1.77;83.07
38038;BME280;23843;51.320;12.340;2022-11-20T12:01:17;99812.72;;;1.73;84.36
38038;BME280;23843;51.320;12.340;2022-11-20T12:03:54;99812.78;;;1.69;83.25
38038;BME280;23843;51.320;12.340;2022-11-20T12:06:21;99807.72;;;1.63;82.39
38038;BME280;23843;51.320;12.340;2022-11-20T12:08:49;99814.69;;;1.63;84.38
38038;BME280;23843;51.320;12.340;2022-11-20T12:11:21;99807.91;;;1.57;83.74
38038;BME280;23843;51.320;12.340;2022-11-20T12:13:53;99802.16;;;1.43;81.33
38038;BME280;23843;51.320;12.340;2022-11-20T12:16:20;99796.31;;;1.33;80.88
38038;BME280;23843;51.320;12.340;2022-11-20T12:18:50;99803.38;;;1.30;81.74
38038;BME280;23843;51.320;12.340;2022-11-20T12:21:20;99800.09;;;1.21;81.60
38038;BME280;23843;51.320;12.340;2022-11-20T12:24:23;99793.25;;;1.17;82.33
38038;BME280;23843;51.320;12.340;2022-11-20T12:27:03;99801.25;;;1.10;81.42
38038;BME280;23843;51.320;12.340;2022-11-20T12:29:40;99799.53;;;1.09;82.95
38038;BME280;23843;51.320;12.340;2022-11-20T12:32:31;99796.09;;;1.08;84.08
38038;BME280;23843;51.320;12.340;2022-11-20T12:35:07;99793.56;;;1.05;82.73
38038;BME280;23843;51.320;12.340;2022-11-20T12:37:45;99792.66;;;1.06;83.91
38038;BME280;23843;51.320;12.340;2022-11-20T12:40:25;99790.16;;;1.01;84.92
38038;BME280;23843;51.320;12.340;2022-11-20T12:42:57;99788.63;;;0.93;83.96
38038;BME280;23843;51.320;12.340;2022-11-20T12:45:46;99790.34;;;0.94;84.42
38038;BME280;23843;51.320;12.340;2022-11-20T12:48:35;99774.81;;;0.88;84.27
38038;BME280;23843;51.320;12.340;2022-11-20T12:51:21;99778.34;;;0.87;84.08
38038;BME280;23843;51.320;12.340;2022-11-20T12:54:00;99779.16;;;0.89;85.43
38038;BME280;23843;51.320;12.340;2022-11-20T12:56:37;99777.56;;;0.83;84.26
38038;BME280;23843;51.320;12.340;2022-11-20T12:59:26;99775.91;;;0.79;84.04
38038;BME280;23843;51.320;12.340;2022-11-20T13:01:58;99775.06;;;0.78;85.13
38038;BME280;23843;51.320;12.340;2022-11-20T13:04:42;99773.34;;;0.77;84.62
38038;BME280;23843;51.320;12.340;2022-11-20T13:07:12;99781.22;;;0.76;84.07
38038;BME280;23843;51.320;12.340;2022-11-20T13:09:42;99776.84;;;0.76;83.69
38038;BME280;23843;51.320;12.340;2022-11-20T13:12:11;99765.56;;;0.76;83.85
38038;BME280;23843;51.320;12.340;2022-11-20T13:14:42;99775.19;;;0.72;83.29
38038;BME280;23843;51.320;12.340;2022-11-20T13:17:14;99773.53;;;0.68;83.27
38038;BME280;23843;51.320;12.340;2022-11-20T13:19:41;99778.63;;;0.74;84.88
38038;BME280;23843;51.320;12.340;2022-11-20T13:22:08;99776.03;;;0.73;83.36
38038;BME280;23843;51.320;12.340;2022-11-20T13:24:35;99779.56;;;0.72;81.63
38038;BME280;23843;51.320;12.340;2022-11-20T13:27:02;99773.63;;;0.65;81.52
38038;BME280;23843;51.320;12.340;2022-11-20T13:29:29;99770.16;;;0.64;82.81
38038;BME280;23843;51.320;12.340;2022-11-20T13:32:06;99766.72;;;0.62;82.44
38038;BME280;23843;51.320;12.340;2022-11-20T13:34:34;99765.78;;;0.65;83.12
38038;BME280;23843;51.320;12.340;2022-11-20T13:36:59;99756.19;;;0.67;82.99
38038;BME280;23843;51.320;12.340;2022-11-20T13:39:25;99753.59;;;0.67;83.67
38038;BME280;23843;51.320;12.340;2022-11-20T13:41:56;99742.34;;;0.65;82.11
38038;BME280;23843;51.320;12.340;2022-11-20T13:44:25;99739.72;;;0.65;81.72
38038;BME280;23843;51.320;12.340;2022-11-20T13:46:52;99742.34;;;0.65;81.89
38038;BME280;23843;51.320;12.340;2022-11-20T13:49:29;99747.56;;;0.65;82.65
38038;BME280;23843;51.320;12.340;2022-11-20T13:52:04;99758.78;;;0.69;83.48
38038;BME280;23843;51.320;12.340;2022-11-20T13:54:47;99746.69;;;0.66;82.80
38038;BME280;23843;51.320;12.340;2022-11-20T13:57:39;99739.72;;;0.67;83.53
38038;BME280;23843;51.320;12.340;2022-11-20T14:00:11;99736.19;;;0.68;84.06
38038;BME280;23843;51.320;12.340;2022-11-20T14:02:37;99735.34;;;0.67;84.29
38038;BME280;23843;51.320;12.340;2022-11-20T14:05:04;99733.56;;;0.69;85.51
38038;BME280;23843;51.320;12.340;2022-11-20T14:07:37;99740.63;;;0.64;85.08
38038;BME280;23843;51.320;12.340;2022-11-20T14:10:05;99742.25;;;0.68;86.56
38038;BME280;23843;51.320;12.340;2022-11-20T14:12:33;99748.47;;;0.64;86.54
38038;BME280;23843;51.320;12.340;2022-11-20T14:14:59;99740.84;;;0.55;85.12
38038;BME280;23843;51.320;12.340;2022-11-20T14:17:31;99742.63;;;0.53;86.44
38038;BME280;23843;51.320;12.340;2022-11-20T14:19:59;99738.25;;;0.53;87.09
38038;BME280;23843;51.320;12.340;2022-11-20T14:22:27;99739.19;;;0.51;86.82
38038;BME280;23843;51.320;12.340;2022-11-20T14:25:03;99747.00;;;0.52;87.75
38038;BME280;23843;51.320;12.340;2022-11-20T14:27:28;99744.47;;;0.49;87.41
38038;BME280;23843;51.320;12.340;2022-11-20T14:29:55;99739.47;;;0.38;86.76
38038;BME280;23843;51.320;12.340;2022-11-20T14:32:25;99737.84;;;0.34;86.46
38038;BME280;23843;51.320;12.340;2022-11-20T14:34:52;99737.03;;;0.31;87.25
38038;BME280;23843;51.320;12.340;2022-11-20T14:37:20;99739.72;;;0.28;87.26
38038;BME280;23843;51.320;12.340;2022-11-20T14:39:49;99742.34;;;0.26;87.71
38038;BME280;23843;51.320;12.340;2022-11-20T14:42:16;99745.88;;;0.24;88.25
38038;BME280;23843;51.320;12.340;2022-11-20T14:44:42;99752.00;;;0.21;88.18
38038;BME280;23843;51.320;12.340;2022-11-20T14:47:12;99746.88;;;0.18;87.81
38038;BME280;23843;51.320;12.340;2022-11-20T14:49:38;99744.38;;;0.13;88.29
38038;BME280;23843;51.320;12.340;2022-11-20T14:52:13;99752.34;;;0.06;88.18
38038;BME280;23843;51.320;12.340;2022-11-20T14:54:43;99743.78;;;0.01;88.33
38038;BME280;23843;51.320;12.340;2022-11-20T14:57:21;99745.38;;;0.06;89.29
38038;BME280;23843;51.320;12.340;2022-11-20T14:59:47;99734.28;;;-0.02;88.90
38038;BME280;23843;51.320;12.340;2022-11-20T15:02:14;99735.22;;;-0.05;89.11
38038;BME280;23843;51.320;12.340;2022-11-20T15:04:45;99737.00;;;-0.08;89.44
38038;BME280;23843;51.320;12.340;2022-11-20T15:07:10;99749.28;;;-0.15;88.95
38038;BME280;23843;51.320;12.340;2022-11-20T15:09:35;99745.00;;;-0.17;89.55
38038;BME280;23843;51.320;12.340;2022-11-20T15:12:02;99749.41;;;-0.21;89.60
38038;BME280;23843;51.320;12.340;2022-11-20T15:14:30;99748.72;;;-0.29;88.90
38038;BME280;23843;51.320;12.340;2022-11-20T15:16:55;99760.13;;;-0.36;89.03
38038;BME280;23843;51.320;12.340;2022-11-20T15:19:24;99752.34;;;-0.39;89.46
38038;BME280;23843;51.320;12.340;2022-11-20T15:21:50;99759.44;;;-0.46;88.92
38038;BME280;23843;51.320;12.340;2022-11-20T15:24:16;99750.88;;;-0.53;89.19
38038;BME280;23843;51.320;12.340;2022-11-20T15:26:42;99746.63;;;-0.57;89.43
38038;BME280;23843;51.320;12.340;2022-11-20T15:29:08;99747.63;;;-0.64;89.19
38038;BME280;23843;51.320;12.340;2022-11-20T15:31:34;99752.03;;;-0.69;89.77
38038;BME280;23843;51.320;12.340;2022-11-20T15:34:00;99758.19;;;-0.73;89.78
38038;BME280;23843;51.320;12.340;2022-11-20T15:36:27;99752.16;;;-0.75;90.32
38038;BME280;23843;51.320;12.340;2022-11-20T15:38:52;99750.50;;;-0.79;90.09
38038;BME280;23843;51.320;12.340;2022-11-20T15:41:17;99753.19;;;-0.84;89.97
38038;BME280;23843;51.320;12.340;2022-11-20T15:43:43;99750.69;;;-0.90;90.19
38038;BME280;23843;51.320;12.340;2022-11-20T15:46:10;99752.50;;;-0.95;90.19
38038;BME280;23843;51.320;12.340;2022-11-20T15:48:39;99749.94;;;-0.98;90.62
38038;BME280;23843;51.320;12.340;2022-11-20T15:51:12;99753.47;;;-1.01;90.61
38038;BME280;23843;51.320;12.340;2022-11-20T15:53:42;99756.13;;;-1.04;91.01
38038;BME280;23843;51.320;12.340;2022-11-20T15:56:11;99756.97;;;-1.05;91.14
38038;BME280;23843;51.320;12.340;2022-11-20T15:58:37;99754.38;;;-1.05;91.43
38038;BME280;23843;51.320;12.340;2022-11-20T16:01:02;99757.03;;;-1.06;91.46
38038;BME280;23843;51.320;12.340;2022-11-20T16:03:28;99748.38;;;-1.09;91.51
38038;BME280;23843;51.320;12.340;2022-11-20T16:05:53;99747.59;;;-1.12;91.21
38038;BME280;23843;51.320;12.340;2022-11-20T16:08:22;99744.19;;;-1.17;91.62
38038;BME280;23843;51.320;12.340;2022-11-20T16:10:48;99742.53;;;-1.21;91.60
38038;BME280;23843;51.320;12.340;2022-11-20T16:13:16;99741.69;;;-1.23;91.65
38038;BME280;23843;51.320;12.340;2022-11-20T16:15:51;99740.88;;;-1.25;91.78
38038;BME280;23843;51.320;12.340;2022-11-20T16:18:21;99742.69;;;-1.31;91.62
38038;BME280;23843;51.320;12.340;2022-11-20T16:20:48;99749.66;;;-1.34;91.62
38038;BME280;23843;51.320;12.340;2022-11-20T16:23:14;99747.88;;;-1.32;92.37
38038;BME280;23843;51.320;12.340;2022-11-20T16:25:40;99740.91;;;-1.28;92.58
38038;BME280;23843;51.320;12.340;2022-11-20T16:28:07;99740.00;;;-1.26;92.85
38038;BME280;23843;51.320;12.340;2022-11-20T16:30:33;99739.16;;;-1.26;92.69
38038;BME280;23843;51.320;12.340;2022-11-20T16:32:58;99740.06;;;-1.29;92.35
38038;BME280;23843;51.320;12.340;2022-11-20T16:35:25;99734.94;;;-1.34;91.90
38038;BME280;23843;51.320;12.340;2022-11-20T16:37:51;99734.97;;;-1.37;92.05
38038;BME280;23843;51.320;12.340;2022-11-20T16:40:16;99735.84;;;-1.38;92.40
38038;BME280;23843;51.320;12.340;2022-11-20T16:42:42;99739.38;;;-1.42;92.24
38038;BME280;23843;51.320;12.340;2022-11-20T16:45:10;99725.59;;;-1.45;92.34
38038;BME280;23843;51.320;12.340;2022-11-20T16:47:35;99730.84;;;-1.48;91.97
38038;BME280;23843;51.320;12.340;2022-11-20T16:50:03;99728.25;;;-1.50;92.21
38038;BME280;23843;51.320;12.340;2022-11-20T16:52:29;99730.06;;;-1.54;92.51
38038;BME280;23843;51.320;12.340;2022-11-20T16:54:55;99733.53;;;-1.56;92.45
38038;BME280;23843;51.320;12.340;2022-11-20T16:57:20;99724.03;;;-1.59;92.57
38038;BME280;23843;51.320;12.340;2022-11-20T16:59:46;99730.97;;;-1.59;92.87
38038;BME280;23843;51.320;12.340;2022-11-20T17:02:13;99727.53;;;-1.61;93.39
38038;BME280;23843;51.320;12.340;2022-11-20T17:04:39;99719.81;;;-1.64;93.36
38038;BME280;23843;51.320;12.340;2022-11-20T17:07:04;99718.97;;;-1.66;93.61
38038;BME280;23843;51.320;12.340;2022-11-20T17:09:30;99717.25;;;-1.67;93.49
38038;BME280;23843;51.320;12.340;2022-11-20T17:11:55;99724.22;;;-1.69;93.79
38038;BME280;23843;51.320;12.340;2022-11-20T17:14:21;99716.44;;;-1.71;93.85
38038;BME280;23843;51.320;12.340;2022-11-20T17:16:46;99714.72;;;-1.72;94.64
38038;BME280;23843;51.320;12.340;2022-11-20T17:19:13;99712.13;;;-1.74;94.98
38038;BME280;23843;51.320;12.340;2022-11-20T17:21:39;99703.50;;;-1.76;95.26
38038;BME280;23843;51.320;12.340;2022-11-20T17:24:06;99696.63;;;-1.77;95.21
38038;BME280;23843;51.320;12.340;2022-11-20T17:26:33;99700.13;;;-1.79;95.36
38038;BME280;23843;51.320;12.340;2022-11-20T17:29:00;99702.75;;;-1.82;95.83
38038;BME280;23843;51.320;12.340;2022-11-20T17:31:27;99701.94;;;-1.86;96.44
38038;BME280;23843;51.320;12.340;2022-11-20T17:33:55;99703.69;;;-1.88;96.34
38038;BME280;23843;51.320;12.340;2022-11-20T17:36:22;99702.09;;;-1.95;96.64
38038;BME280;23843;51.320;12.340;2022-11-20T17:38:47;99708.16;;;-1.98;96.89
38038;BME280;23843;51.320;12.340;2022-11-20T17:41:15;99705.59;;;-1.99;96.44
38038;BME280;23843;51.320;12.340;2022-11-20T17:43:41;99706.44;;;-2.00;96.77
38038;BME280;23843;51.320;12.340;2022-11-20T17:46:08;99706.44;;;-1.99;96.75
38038;BME280;23843;51.320;12.340;2022-11-20T17:48:34;99709.94;;;-2.00;96.84
38038;BME280;23843;51.320;12.340;2022-11-20T17:51:00;99707.34;;;-2.00;96.58
38038;BME280;23843;51.320;12.340;2022-11-20T17:53:28;99704.75;;;-2.01;96.62
38038;BME280;23843;51.320;12.340;2022-11-20T17:55:57;99702.16;;;-2.01;96.76
38038;BME280;23843;51.320;12.340;2022-11-20T17:58:22;99695.25;;;-2.02;96.98
38038;BME280;23843;51.320;12.340;2022-11-20T18:00:51;99696.97;;;-2.01;97.29
38038;BME280;23843;51.320;12.340;2022-11-20T18:03:16;99690.94;;;-2.03;96.66
38038;BME280;23843;51.320;12.340;2022-11-20T18:05:42;99690.88;;;-2.00;96.97
38038;BME280;23843;51.320;12.340;2022-11-20T18:08:07;99691.75;;;-2.00;97.36
38038;BME280;23843;51.320;12.340;2022-11-20T18:10:34;99689.13;;;-1.98;97.36
38038;BME280;23843;51.320;12.340;2022-11-20T18:13:00;99681.34;;;-1.98;97.59
38038;BME280;23843;51.320;12.340;2022-11-20T18:15:25;99684.78;;;-1.98;97.14
38038;BME280;23843;51.320;12.340;2022-11-20T18:17:50;99672.69;;;-1.97;97.34
38038;BME280;23843;51.320;12.340;2022-11-20T18:20:16;99664.84;;;-1.96;96.99
38038;BME280;23843;51.320;12.340;2022-11-20T18:22:42;99659.66;;;-1.94;97.63
38038;BME280;23843;51.320;12.340;2022-11-20T18:25:08;99662.25;;;-1.94;97.52
38038;BME280;23843;51.320;12.340;2022-11-20T18:27:35;99663.94;;;-1.93;97.98
38038;BME280;23843;51.320;12.340;2022-11-20T18:30:00;99663.94;;;-1.90;97.84
38038;BME280;23843;51.320;12.340;2022-11-20T18:32:25;99659.53;;;-1.86;97.71